sensor_id;sensor_type;location;lat;lon;timestamp;pressure;altitude;pressure_sealevel;temperature
13304;BMP280;6720;51.958;4.540;2023-11-22T00:00:27;102672.75;;;11.36
13304;BMP280;6720;51.958;4.540;2023-11-22T00:02:52;102673.59;;;11.32
13304;BMP280;6720;51.958;4.540;2023-11-22T00:05:18;102673.56;;;11.30
13304;BMP280;6720;51.958;4.540;2023-11-22T00:07:44;102662.97;;;11.21
13304;BMP280;6720;51.958;4.540;2023-11-22T00:10:09;102675.22;;;11.19
13304;BMP280;6720;51.958;4.540;2023-11-22T00:12:35;102681.28;;;11.15
13304;BMP280;6720;51.958;4.540;2023-11-22T00:15:07;102676.88;;;11.11
13304;BMP280;6720;51.958;4.540;2023-11-22T00:17:36;102681.31;;;11.19
13304;BMP280;6720;51.958;4.540;2023-11-22T00:20:02;102693.50;;;11.14
13304;BMP280;6720;51.958;4.540;2023-11-22T00:22:34;102674.31;;;11.18
13304;BMP280;6720;51.958;4.540;2023-11-22T00:25:02;102692.66;;;11.14
13304;BMP280;6720;51.958;4.540;2023-11-22T00:27:29;102703.13;;;11.14
13304;BMP280;6720;51.958;4.540;2023-11-22T00:29:58;102700.56;;;11.21
13304;BMP280;6720;51.958;4.540;2023-11-22T00:32:24;102709.25;;;11.16
13304;BMP280;6720;51.958;4.540;2023-11-22T00:34:49;102713.53;;;11.08
13304;BMP280;6720;51.958;4.540;2023-11-22T00:37:15;102719.53;;;10.98
13304;BMP280;6720;51.958;4.540;2023-11-22T00:39:41;102712.59;;;11.04
13304;BMP280;6720;51.958;4.540;2023-11-22T00:42:07;102710.84;;;11.03
13304;BMP280;6720;51.958;4.540;2023-11-22T00:44:33;102709.16;;;11.05
13304;BMP280;6720;51.958;4.540;2023-11-22T00:46:58;102716.88;;;10.95
13304;BMP280;6720;51.958;4.540;2023-11-22T00:49:24;102717.00;;;11.04
13304;BMP280;6720;51.958;4.540;2023-11-22T00:51:49;102709.19;;;11.11
13304;BMP280;6720;51.958;4.540;2023-11-22T00:54:16;102720.53;;;11.09
13304;BMP280;6720;51.958;4.540;2023-11-22T00:56:41;102718.75;;;11.05
13304;BMP280;6720;51.958;4.540;2023-11-22T00:59:07;102716.09;;;11.03
13304;BMP280;6720;51.958;4.540;2023-11-22T01:01:34;102716.94;;;11.01
13304;BMP280;6720;51.958;4.540;2023-11-22T01:03:59;102718.69;;;10.99
13304;BMP280;6720;51.958;4.540;2023-11-22T01:06:24;102729.97;;;10.92
13304;BMP280;6720;51.958;4.540;2023-11-22T01:08:50;102730.66;;;10.79
13304;BMP280;6720;51.958;4.540;2023-11-22T01:11:16;102741.09;;;10.76
13304;BMP280;6720;51.958;4.540;2023-11-22T01:13:41;102739.28;;;10.69
13304;BMP280;6720;51.958;4.540;2023-11-22T01:16:08;102739.28;;;10.72
13304;BMP280;6720;51.958;4.540;2023-11-22T01:18:34;102748.88;;;10.68
13304;BMP280;6720;51.958;4.540;2023-11-22T01:21:00;102756.59;;;10.58
13304;BMP280;6720;51.958;4.540;2023-11-22T01:23:25;102757.44;;;10.57
13304;BMP280;6720;51.958;4.540;2023-11-22T01:25:53;102763.59;;;10.59
13304;BMP280;6720;51.958;4.540;2023-11-22T01:28:19;102767.06;;;10.58
13304;BMP280;6720;51.958;4.540;2023-11-22T01:30:44;102764.47;;;10.61
13304;BMP280;6720;51.958;4.540;2023-11-22T01:33:14;102770.50;;;10.55
13304;BMP280;6720;51.958;4.540;2023-11-22T01:35:40;102754.75;;;10.51
13304;BMP280;6720;51.958;4.540;2023-11-22T01:38:06;102744.97;;;10.39
13304;BMP280;6720;51.958;4.540;2023-11-22T01:40:31;102744.91;;;10.36
13304;BMP280;6720;51.958;4.540;2023-11-22T01:43:00;102752.03;;;10.45
13304;BMP280;6720;51.958;4.540;2023-11-22T01:45:27;102763.28;;;10.38
13304;BMP280;6720;51.958;4.540;2023-11-22T01:47:53;102764.00;;;10.28
13304;BMP280;6720;51.958;4.540;2023-11-22T01:50:19;102771.81;;;10.25
13304;BMP280;6720;51.958;4.540;2023-11-22T01:52:45;102770.78;;;10.15
13304;BMP280;6720;51.958;4.540;2023-11-22T01:55:12;102778.75;;;10.23
13304;BMP280;6720;51.958;4.540;2023-11-22T01:57:38;102778.78;;;10.24
13304;BMP280;6720;51.958;4.540;2023-11-22T02:00:05;102771.72;;;10.19
13304;BMP280;6720;51.958;4.540;2023-11-22T02:02:52;102771.75;;;10.22
13304;BMP280;6720;51.958;4.540;2023-11-22T02:05:47;102771.72;;;10.19
13304;BMP280;6720;51.958;4.540;2023-11-22T02:08:22;102768.09;;;10.11
13304;BMP280;6720;51.958;4.540;2023-11-22T02:10:57;102764.63;;;10.10
13304;BMP280;6720;51.958;4.540;2023-11-22T02:13:23;102767.91;;;10.00
13304;BMP280;6720;51.958;4.540;2023-11-22T02:15:48;102763.78;;;10.13
13304;BMP280;6720;51.958;4.540;2023-11-22T02:18:14;102762.16;;;10.21
13304;BMP280;6720;51.958;4.540;2023-11-22T02:20:39;102770.81;;;10.17
13304;BMP280;6720;51.958;4.540;2023-11-22T02:23:10;102759.56;;;10.22
13304;BMP280;6720;51.958;4.540;2023-11-22T02:25:36;102755.06;;;10.14
13304;BMP280;6720;51.958;4.540;2023-11-22T02:28:02;102761.16;;;10.13
13304;BMP280;6720;51.958;4.540;2023-11-22T02:30:28;102760.25;;;10.11
13304;BMP280;6720;51.958;4.540;2023-11-22T02:32:53;102752.06;;;9.93
13304;BMP280;6720;51.958;4.540;2023-11-22T02:35:19;102759.72;;;9.81
13304;BMP280;6720;51.958;4.540;2023-11-22T02:37:45;102755.28;;;9.77
13304;BMP280;6720;51.958;4.540;2023-11-22T02:40:18;102760.75;;;9.90
13304;BMP280;6720;51.958;4.540;2023-11-22T02:42:47;102745.06;;;9.92
13304;BMP280;6720;51.958;4.540;2023-11-22T02:45:14;102760.06;;;10.00
13304;BMP280;6720;51.958;4.540;2023-11-22T02:47:40;102760.91;;;10.01
13304;BMP280;6720;51.958;4.540;2023-11-22T02:50:06;102751.91;;;9.82
13304;BMP280;6720;51.958;4.540;2023-11-22T02:52:32;102765.88;;;9.83
13304;BMP280;6720;51.958;4.540;2023-11-22T02:54:58;102769.38;;;9.85
13304;BMP280;6720;51.958;4.540;2023-11-22T02:57:24;102762.50;;;9.90
13304;BMP280;6720;51.958;4.540;2023-11-22T02:59:49;102756.50;;;9.98
13304;BMP280;6720;51.958;4.540;2023-11-22T03:02:14;102754.66;;;9.91
13304;BMP280;6720;51.958;4.540;2023-11-22T03:04:42;102752.16;;;9.99
13304;BMP280;6720;51.958;4.540;2023-11-22T03:07:08;102748.56;;;9.91
13304;BMP280;6720;51.958;4.540;2023-11-22T03:09:34;102753.88;;;9.97
13304;BMP280;6720;51.958;4.540;2023-11-22T03:11:59;102749.38;;;9.87
13304;BMP280;6720;51.958;4.540;2023-11-22T03:14:25;102752.88;;;9.89
13304;BMP280;6720;51.958;4.540;2023-11-22T03:16:50;102760.75;;;9.90
13304;BMP280;6720;51.958;4.540;2023-11-22T03:19:16;102772.97;;;9.90
13304;BMP280;6720;51.958;4.540;2023-11-22T03:21:41;102774.66;;;9.88
13304;BMP280;6720;51.958;4.540;2023-11-22T03:24:09;102783.47;;;9.93
13304;BMP280;6720;51.958;4.540;2023-11-22T03:26:34;102781.72;;;9.92
13304;BMP280;6720;51.958;4.540;2023-11-22T03:29:00;102789.63;;;9.95
13304;BMP280;6720;51.958;4.540;2023-11-22T03:31:26;102797.09;;;9.75
13304;BMP280;6720;51.958;4.540;2023-11-22T03:33:53;102808.94;;;9.54
13304;BMP280;6720;51.958;4.540;2023-11-22T03:36:19;102807.47;;;9.69
13304;BMP280;6720;51.958;4.540;2023-11-22T03:38:45;102808.50;;;9.77
13304;BMP280;6720;51.958;4.540;2023-11-22T03:41:10;102825.06;;;9.78
13304;BMP280;6720;51.958;4.540;2023-11-22T03:43:36;102829.50;;;9.80
13304;BMP280;6720;51.958;4.540;2023-11-22T03:46:02;102829.56;;;9.86
13304;BMP280;6720;51.958;4.540;2023-11-22T03:48:27;102839.22;;;9.89
13304;BMP280;6720;51.958;4.540;2023-11-22T03:50:53;102837.53;;;9.91
13304;BMP280;6720;51.958;4.540;2023-11-22T03:53:19;102847.16;;;9.93
13304;BMP280;6720;51.958;4.540;2023-11-22T03:55:46;102831.56;;;9.99
13304;BMP280;6720;51.958;4.540;2023-11-22T03:58:12;102841.22;;;10.02
13304;BMP280;6720;51.958;4.540;2023-11-22T04:00:37;102855.28;;;10.07
13304;BMP280;6720;51.958;4.540;2023-11-22T04:03:03;102852.63;;;10.05
13304;BMP280;6720;51.958;4.540;2023-11-22T04:05:29;102850.03;;;10.07
13304;BMP280;6720;51.958;4.540;2023-11-22T04:07:54;102852.69;;;10.08
13304;BMP280;6720;51.958;4.540;2023-11-22T04:10:21;102855.41;;;10.13
13304;BMP280;6720;51.958;4.540;2023-11-22T04:12:47;102857.03;;;10.08
13304;BMP280;6720;51.958;4.540;2023-11-22T04:15:13;102855.34;;;10.10
13304;BMP280;6720;51.958;4.540;2023-11-22T04:17:40;102855.13;;;10.01
13304;BMP280;6720;51.958;4.540;2023-11-22T04:20:07;102859.53;;;10.02
13304;BMP280;6720;51.958;4.540;2023-11-22T04:22:43;102862.09;;;9.99
13304;BMP280;6720;51.958;4.540;2023-11-22T04:25:10;102861.06;;;9.91
13304;BMP280;6720;51.958;4.540;2023-11-22T04:27:39;102867.38;;;10.02
13304;BMP280;6720;51.958;4.540;2023-11-22T04:30:06;102863.75;;;9.94
13304;BMP280;6720;51.958;4.540;2023-11-22T04:32:34;102871.66;;;9.98
13304;BMP280;6720;51.958;4.540;2023-11-22T04:35:01;102872.47;;;9.94
13304;BMP280;6720;51.958;4.540;2023-11-22T04:37:29;102877.44;;;9.81
13304;BMP280;6720;51.958;4.540;2023-11-22T04:39:57;102876.28;;;9.65
13304;BMP280;6720;51.958;4.540;2023-11-22T04:42:22;102875.69;;;9.80
13304;BMP280;6720;51.958;4.540;2023-11-22T04:44:48;102870.59;;;9.89
13304;BMP280;6720;51.958;4.540;2023-11-22T04:47:13;102869.75;;;9.88
13304;BMP280;6720;51.958;4.540;2023-11-22T04:49:39;102861.59;;;9.72
13304;BMP280;6720;51.958;4.540;2023-11-22T04:52:04;102866.28;;;9.89
13304;BMP280;6720;51.958;4.540;2023-11-22T04:54:30;102863.75;;;9.94
13304;BMP280;6720;51.958;4.540;2023-11-22T04:56:57;102859.53;;;10.02
13304;BMP280;6720;51.958;4.540;2023-11-22T04:59:22;102852.66;;;10.07
13304;BMP280;6720;51.958;4.540;2023-11-22T05:01:48;102857.25;;;10.20
13304;BMP280;6720;51.958;4.540;2023-11-22T05:04:14;102858.22;;;10.25
13304;BMP280;6720;51.958;4.540;2023-11-22T05:06:39;102853.84;;;10.27
13304;BMP280;6720;51.958;4.540;2023-11-22T05:09:05;102857.31;;;10.24
13304;BMP280;6720;51.958;4.540;2023-11-22T05:11:31;102861.75;;;10.28
13304;BMP280;6720;51.958;4.540;2023-11-22T05:13:57;102860.88;;;10.28
13304;BMP280;6720;51.958;4.540;2023-11-22T05:16:22;102863.44;;;10.25
13304;BMP280;6720;51.958;4.540;2023-11-22T05:18:49;102868.75;;;10.28
13304;BMP280;6720;51.958;4.540;2023-11-22T05:21:15;102874.06;;;10.34
13304;BMP280;6720;51.958;4.540;2023-11-22T05:23:41;102877.50;;;10.31
13304;BMP280;6720;51.958;4.540;2023-11-22T05:26:06;102863.53;;;10.31
13304;BMP280;6720;51.958;4.540;2023-11-22T05:28:32;102857.34;;;10.26
13304;BMP280;6720;51.958;4.540;2023-11-22T05:30:58;102855.72;;;10.34
13304;BMP280;6720;51.958;4.540;2023-11-22T05:33:24;102845.25;;;10.34
13304;BMP280;6720;51.958;4.540;2023-11-22T05:35:49;102833.75;;;10.24
13304;BMP280;6720;51.958;4.540;2023-11-22T05:38:15;102833.03;;;10.33
13304;BMP280;6720;51.958;4.540;2023-11-22T05:40:40;102840.03;;;10.35
13304;BMP280;6720;51.958;4.540;2023-11-22T05:43:08;102840.97;;;10.37
13304;BMP280;6720;51.958;4.540;2023-11-22T05:45:34;102842.69;;;10.37
13304;BMP280;6720;51.958;4.540;2023-11-22T05:48:00;102846.22;;;10.39
13304;BMP280;6720;51.958;4.540;2023-11-22T05:50:25;102850.66;;;10.43
13304;BMP280;6720;51.958;4.540;2023-11-22T05:52:50;102847.94;;;10.37
13304;BMP280;6720;51.958;4.540;2023-11-22T05:55:17;102848.78;;;10.36
13304;BMP280;6720;51.958;4.540;2023-11-22T05:57:43;102845.41;;;10.43
13304;BMP280;6720;51.958;4.540;2023-11-22T06:00:09;102848.75;;;10.33
13304;BMP280;6720;51.958;4.540;2023-11-22T06:02:35;102851.59;;;10.48
13304;BMP280;6720;51.958;4.540;2023-11-22T06:05:02;102866.41;;;10.46
13304;BMP280;6720;51.958;4.540;2023-11-22T06:07:28;102870.72;;;10.42
13304;BMP280;6720;51.958;4.540;2023-11-22T06:09:54;102872.50;;;10.45
13304;BMP280;6720;51.958;4.540;2023-11-22T06:12:20;102882.91;;;10.39
13304;BMP280;6720;51.958;4.540;2023-11-22T06:15:15;102895.13;;;10.40
13304;BMP280;6720;51.958;4.540;2023-11-22T06:17:51;102896.00;;;10.39
13304;BMP280;6720;51.958;4.540;2023-11-22T06:20:16;102914.34;;;10.42
13304;BMP280;6720;51.958;4.540;2023-11-22T06:22:42;102914.81;;;10.18
13304;BMP280;6720;51.958;4.540;2023-11-22T06:25:09;102900.22;;;10.32
13304;BMP280;6720;51.958;4.540;2023-11-22T06:27:35;102909.84;;;9.89
13304;BMP280;6720;51.958;4.540;2023-11-22T06:30:01;102903.56;;;10.22
13304;BMP280;6720;51.958;4.540;2023-11-22T06:32:26;102894.94;;;10.31
13304;BMP280;6720;51.958;4.540;2023-11-22T06:34:51;102893.19;;;10.30
13304;BMP280;6720;51.958;4.540;2023-11-22T06:37:17;102881.09;;;10.38
13304;BMP280;6720;51.958;4.540;2023-11-22T06:39:43;102875.69;;;10.27
13304;BMP280;6720;51.958;4.540;2023-11-22T06:42:08;102877.47;;;10.30
13304;BMP280;6720;51.958;4.540;2023-11-22T06:44:55;102874.81;;;10.27
13304;BMP280;6720;51.958;4.540;2023-11-22T06:47:48;102864.34;;;9.81
13304;BMP280;6720;51.958;4.540;2023-11-22T06:50:18;102864.25;;;10.21
13304;BMP280;6720;51.958;4.540;2023-11-22T06:52:43;102857.16;;;10.14
13304;BMP280;6720;51.958;4.540;2023-11-22T06:55:10;102865.81;;;10.10
13304;BMP280;6720;51.958;4.540;2023-11-22T06:57:37;102865.66;;;10.04
13304;BMP280;6720;51.958;4.540;2023-11-22T07:00:04;102870.56;;;9.86
13304;BMP280;6720;51.958;4.540;2023-11-22T07:02:35;102872.59;;;10.02
13304;BMP280;6720;51.958;4.540;2023-11-22T07:05:02;102875.44;;;10.12
13304;BMP280;6720;51.958;4.540;2023-11-22T07:07:34;102882.50;;;10.16
13304;BMP280;6720;51.958;4.540;2023-11-22T07:10:00;102899.34;;;10.32
13304;BMP280;6720;51.958;4.540;2023-11-22T07:12:25;102907.19;;;10.30
13304;BMP280;6720;51.958;4.540;2023-11-22T07:14:52;102900.28;;;10.35
13304;BMP280;6720;51.958;4.540;2023-11-22T07:17:17;102918.00;;;10.04
13304;BMP280;6720;51.958;4.540;2023-11-22T07:19:43;102925.31;;;10.20
13304;BMP280;6720;51.958;4.540;2023-11-22T07:22:15;102935.25;;;10.40
13304;BMP280;6720;51.958;4.540;2023-11-22T07:24:48;102923.94;;;10.40
13304;BMP280;6720;51.958;4.540;2023-11-22T07:27:17;102916.00;;;10.37
13304;BMP280;6720;51.958;4.540;2023-11-22T07:29:43;102922.13;;;10.36
13304;BMP280;6720;51.958;4.540;2023-11-22T07:32:10;102911.59;;;10.33
13304;BMP280;6720;51.958;4.540;2023-11-22T07:34:36;102909.91;;;10.38
13304;BMP280;6720;51.958;4.540;2023-11-22T07:37:02;102908.28;;;10.43
13304;BMP280;6720;51.958;4.540;2023-11-22T07:39:28;102915.88;;;10.28
13304;BMP280;6720;51.958;4.540;2023-11-22T07:41:57;102922.19;;;10.39
13304;BMP280;6720;51.958;4.540;2023-11-22T07:44:23;102936.84;;;10.31
13304;BMP280;6720;51.958;4.540;2023-11-22T07:46:49;102947.56;;;10.00
13304;BMP280;6720;51.958;4.540;2023-11-22T07:49:15;102955.00;;;10.22
13304;BMP280;6720;51.958;4.540;2023-11-22T07:51:40;102949.81;;;10.23
13304;BMP280;6720;51.958;4.540;2023-11-22T07:54:06;102944.47;;;10.19
13304;BMP280;6720;51.958;4.540;2023-11-22T07:56:32;102949.75;;;10.20
13304;BMP280;6720;51.958;4.540;2023-11-22T07:58:58;102959.31;;;10.18
13304;BMP280;6720;51.958;4.540;2023-11-22T08:01:24;102956.91;;;10.29
13304;BMP280;6720;51.958;4.540;2023-11-22T08:03:51;102958.78;;;10.36
13304;BMP280;6720;51.958;4.540;2023-11-22T08:06:17;102959.38;;;10.23
13304;BMP280;6720;51.958;4.540;2023-11-22T08:08:43;102960.59;;;10.40
13304;BMP280;6720;51.958;4.540;2023-11-22T08:11:11;102956.22;;;10.39
13304;BMP280;6720;51.958;4.540;2023-11-22T08:13:43;102967.38;;;10.29
13304;BMP280;6720;51.958;4.540;2023-11-22T08:16:10;102962.13;;;10.29
13304;BMP280;6720;51.958;4.540;2023-11-22T08:18:36;102963.53;;;10.12
13304;BMP280;6720;51.958;4.540;2023-11-22T08:21:01;102969.19;;;10.33
13304;BMP280;6720;51.958;4.540;2023-11-22T08:23:27;102975.75;;;10.10
13304;BMP280;6720;51.958;4.540;2023-11-22T08:25:53;102964.28;;;10.51
13304;BMP280;6720;51.958;4.540;2023-11-22T08:28:22;102977.72;;;10.23
13304;BMP280;6720;51.958;4.540;2023-11-22T08:30:47;102976.44;;;10.49
13304;BMP280;6720;51.958;4.540;2023-11-22T08:33:13;102978.25;;;10.53
13304;BMP280;6720;51.958;4.540;2023-11-22T08:35:38;102993.59;;;10.81
13304;BMP280;6720;51.958;4.540;2023-11-22T08:38:04;102985.63;;;10.75
13304;BMP280;6720;51.958;4.540;2023-11-22T08:40:33;102982.19;;;10.77
13304;BMP280;6720;51.958;4.540;2023-11-22T08:43:02;102974.72;;;11.01
13304;BMP280;6720;51.958;4.540;2023-11-22T08:45:29;102977.38;;;11.03
13304;BMP280;6720;51.958;4.540;2023-11-22T08:47:55;102979.66;;;10.82
13304;BMP280;6720;51.958;4.540;2023-11-22T08:50:20;102969.41;;;10.45
13304;BMP280;6720;51.958;4.540;2023-11-22T08:52:46;102969.19;;;10.33
13304;BMP280;6720;51.958;4.540;2023-11-22T08:55:12;102958.66;;;10.80
13304;BMP280;6720;51.958;4.540;2023-11-22T08:57:39;102960.91;;;10.58
13304;BMP280;6720;51.958;4.540;2023-11-22T09:00:06;102956.16;;;10.88
13304;BMP280;6720;51.958;4.540;2023-11-22T09:02:33;102959.53;;;10.79
13304;BMP280;6720;51.958;4.540;2023-11-22T09:04:59;102958.88;;;10.42
13304;BMP280;6720;51.958;4.540;2023-11-22T09:07:24;102953.34;;;10.77
13304;BMP280;6720;51.958;4.540;2023-11-22T09:09:51;102958.31;;;10.61
13304;BMP280;6720;51.958;4.540;2023-11-22T09:12:17;102964.59;;;10.69
13304;BMP280;6720;51.958;4.540;2023-11-22T09:14:45;102971.28;;;11.05
13304;BMP280;6720;51.958;4.540;2023-11-22T09:17:10;102977.16;;;10.91
13304;BMP280;6720;51.958;4.540;2023-11-22T09:19:36;102979.56;;;10.77
13304;BMP280;6720;51.958;4.540;2023-11-22T09:22:03;102975.94;;;10.69
13304;BMP280;6720;51.958;4.540;2023-11-22T09:24:28;102981.59;;;10.95
13304;BMP280;6720;51.958;4.540;2023-11-22T09:26:53;102977.91;;;11.41
13304;BMP280;6720;51.958;4.540;2023-11-22T09:29:19;102975.16;;;10.75
13304;BMP280;6720;51.958;4.540;2023-11-22T09:31:44;102981.03;;;11.12
13304;BMP280;6720;51.958;4.540;2023-11-22T09:34:13;102982.38;;;11.46
13304;BMP280;6720;51.958;4.540;2023-11-22T09:36:39;102979.28;;;10.61
13304;BMP280;6720;51.958;4.540;2023-11-22T09:39:05;102978.25;;;10.53
13304;BMP280;6720;51.958;4.540;2023-11-22T09:41:36;102974.78;;;11.06
13304;BMP280;6720;51.958;4.540;2023-11-22T09:44:03;102969.47;;;11.01
13304;BMP280;6720;51.958;4.540;2023-11-22T09:46:29;102969.50;;;11.04
13304;BMP280;6720;51.958;4.540;2023-11-22T09:48:56;102959.97;;;11.08
13304;BMP280;6720;51.958;4.540;2023-11-22T09:51:29;102967.06;;;11.15
13304;BMP280;6720;51.958;4.540;2023-11-22T09:53:58;102954.25;;;11.38
13304;BMP280;6720;51.958;4.540;2023-11-22T09:56:30;102961.03;;;11.20
13304;BMP280;6720;51.958;4.540;2023-11-22T09:58:59;102961.53;;;10.97
13304;BMP280;6720;51.958;4.540;2023-11-22T10:01:27;102963.09;;;11.44
13304;BMP280;6720;51.958;4.540;2023-11-22T10:03:54;102963.94;;;12.10
13304;BMP280;6720;51.958;4.540;2023-11-22T10:06:20;102970.09;;;12.12
13304;BMP280;6720;51.958;4.540;2023-11-22T10:08:46;102976.94;;;11.98
13304;BMP280;6720;51.958;4.540;2023-11-22T10:11:17;102959.66;;;12.18
13304;BMP280;6720;51.958;4.540;2023-11-22T10:13:43;102959.28;;;12.73
13304;BMP280;6720;51.958;4.540;2023-11-22T10:16:12;102946.13;;;12.70
13304;BMP280;6720;51.958;4.540;2023-11-22T10:18:42;102934.47;;;13.68
13304;BMP280;6720;51.958;4.540;2023-11-22T10:21:28;102939.50;;;13.23
13304;BMP280;6720;51.958;4.540;2023-11-22T10:24:02;102932.63;;;13.49
13304;BMP280;6720;51.958;4.540;2023-11-22T10:26:28;102939.47;;;13.20
13304;BMP280;6720;51.958;4.540;2023-11-22T10:28:54;102936.06;;;13.36
13304;BMP280;6720;51.958;4.540;2023-11-22T10:31:22;102928.38;;;12.45
13304;BMP280;6720;51.958;4.540;2023-11-22T10:33:48;102912.75;;;12.62
13304;BMP280;6720;51.958;4.540;2023-11-22T10:36:16;102901.47;;;12.73
13304;BMP280;6720;51.958;4.540;2023-11-22T10:38:49;102904.50;;;12.20
13304;BMP280;6720;51.958;4.540;2023-11-22T10:41:16;102895.22;;;12.59
13304;BMP280;6720;51.958;4.540;2023-11-22T10:43:46;102900.75;;;12.95
13304;BMP280;6720;51.958;4.540;2023-11-22T10:46:13;102904.66;;;13.84
13304;BMP280;6720;51.958;4.540;2023-11-22T10:48:38;102911.19;;;12.82
13304;BMP280;6720;51.958;4.540;2023-11-22T10:51:05;102905.25;;;13.17
13304;BMP280;6720;51.958;4.540;2023-11-22T10:53:35;102905.44;;;13.46
13304;BMP280;6720;51.958;4.540;2023-11-22T10:56:14;102902.72;;;13.35
13304;BMP280;6720;51.958;4.540;2023-11-22T10:58:47;102891.31;;;13.36
13304;BMP280;6720;51.958;4.540;2023-11-22T11:01:15;102881.75;;;13.44
13304;BMP280;6720;51.958;4.540;2023-11-22T11:04:03;102881.69;;;13.35
13304;BMP280;6720;51.958;4.540;2023-11-22T11:06:35;102869.13;;;12.86
13304;BMP280;6720;51.958;4.540;2023-11-22T11:09:03;102865.50;;;12.72
13304;BMP280;6720;51.958;4.540;2023-11-22T11:11:33;102856.63;;;12.52
13304;BMP280;6720;51.958;4.540;2023-11-22T11:14:00;102874.09;;;12.44
13304;BMP280;6720;51.958;4.540;2023-11-22T11:16:27;102873.63;;;12.98
13304;BMP280;6720;51.958;4.540;2023-11-22T11:18:54;102872.56;;;12.79
13304;BMP280;6720;51.958;4.540;2023-11-22T11:21:20;102876.97;;;12.77
13304;BMP280;6720;51.958;4.540;2023-11-22T11:23:45;102860.06;;;12.45
13304;BMP280;6720;51.958;4.540;2023-11-22T11:26:18;102859.38;;;12.70
13304;BMP280;6720;51.958;4.540;2023-11-22T11:28:48;102860.13;;;12.53
13304;BMP280;6720;51.958;4.540;2023-11-22T11:31:14;102858.22;;;12.32
13304;BMP280;6720;51.958;4.540;2023-11-22T11:36:31;102853.22;;;12.68
13304;BMP280;6720;51.958;4.540;2023-11-22T11:39:00;102839.03;;;12.39
13304;BMP280;6720;51.958;4.540;2023-11-22T11:41:31;102832.41;;;13.01
13304;BMP280;6720;51.958;4.540;2023-11-22T11:44:03;102846.94;;;12.42
13304;BMP280;6720;51.958;4.540;2023-11-22T11:46:30;102832.53;;;13.22
13304;BMP280;6720;51.958;4.540;2023-11-22T11:49:10;102850.19;;;13.53
13304;BMP280;6720;51.958;4.540;2023-11-22T11:51:40;102843.19;;;13.66
13304;BMP280;6720;51.958;4.540;2023-11-22T11:54:06;102841.25;;;13.14
13304;BMP280;6720;51.958;4.540;2023-11-22T11:56:35;102838.84;;;13.87
13304;BMP280;6720;51.958;4.540;2023-11-22T11:59:01;102832.66;;;13.54
13304;BMP280;6720;51.958;4.540;2023-11-22T12:01:28;102835.31;;;13.78
13304;BMP280;6720;51.958;4.540;2023-11-22T12:03:55;102823.09;;;14.37
13304;BMP280;6720;51.958;4.540;2023-11-22T12:06:21;102815.13;;;13.96
13304;BMP280;6720;51.958;4.540;2023-11-22T12:08:46;102802.84;;;14.10
13304;BMP280;6720;51.958;4.540;2023-11-22T12:11:13;102805.50;;;13.98
13304;BMP280;6720;51.958;4.540;2023-11-22T12:13:38;102793.19;;;13.69
13304;BMP280;6720;51.958;4.540;2023-11-22T12:16:07;102787.06;;;13.83
13304;BMP280;6720;51.958;4.540;2023-11-22T12:18:43;102794.09;;;13.93
13304;BMP280;6720;51.958;4.540;2023-11-22T12:21:09;102787.94;;;14.09
13304;BMP280;6720;51.958;4.540;2023-11-22T12:23:40;102784.41;;;14.09
13304;BMP280;6720;51.958;4.540;2023-11-22T12:26:09;102779.13;;;13.56
13304;BMP280;6720;51.958;4.540;2023-11-22T12:28:36;102781.72;;;13.50
13304;BMP280;6720;51.958;4.540;2023-11-22T12:31:09;102780.84;;;13.53
13304;BMP280;6720;51.958;4.540;2023-11-22T12:33:35;102788.50;;;12.93
13304;BMP280;6720;51.958;4.540;2023-11-22T12:36:02;102782.66;;;13.69
13304;BMP280;6720;51.958;4.540;2023-11-22T12:38:27;102774.75;;;13.55
13304;BMP280;6720;51.958;4.540;2023-11-22T12:40:56;102765.97;;;13.83
13304;BMP280;6720;51.958;4.540;2023-11-22T12:43:22;102762.47;;;13.90
13304;BMP280;6720;51.958;4.540;2023-11-22T12:45:58;102757.19;;;14.44
13304;BMP280;6720;51.958;4.540;2023-11-22T12:48:24;102745.78;;;14.18
13304;BMP280;6720;51.958;4.540;2023-11-22T12:50:51;102753.69;;;14.03
13304;BMP280;6720;51.958;4.540;2023-11-22T12:53:17;102751.06;;;14.21
13304;BMP280;6720;51.958;4.540;2023-11-22T12:55:50;102747.56;;;14.03
13304;BMP280;6720;51.958;4.540;2023-11-22T12:58:17;102758.94;;;13.58
13304;BMP280;6720;51.958;4.540;2023-11-22T13:00:47;102751.03;;;13.37
13304;BMP280;6720;51.958;4.540;2023-11-22T13:03:13;102748.38;;;13.36
13304;BMP280;6720;51.958;4.540;2023-11-22T13:05:40;102743.16;;;13.52
13304;BMP280;6720;51.958;4.540;2023-11-22T13:08:09;102737.78;;;13.13
13304;BMP280;6720;51.958;4.540;2023-11-22T13:10:46;102732.53;;;13.09
13304;BMP280;6720;51.958;4.540;2023-11-22T13:13:14;102734.38;;;13.68
13304;BMP280;6720;51.958;4.540;2023-11-22T13:15:39;102727.19;;;12.92
13304;BMP280;6720;51.958;4.540;2023-11-22T13:18:08;102722.91;;;13.24
13304;BMP280;6720;51.958;4.540;2023-11-22T13:20:34;102711.34;;;12.74
13304;BMP280;6720;51.958;4.540;2023-11-22T13:23:00;102712.44;;;13.45
13304;BMP280;6720;51.958;4.540;2023-11-22T13:25:27;102718.47;;;13.05
13304;BMP280;6720;51.958;4.540;2023-11-22T13:27:53;102713.28;;;13.38
13304;BMP280;6720;51.958;4.540;2023-11-22T13:30:20;102711.41;;;12.92
13304;BMP280;6720;51.958;4.540;2023-11-22T13:32:52;102707.13;;;13.06
13304;BMP280;6720;51.958;4.540;2023-11-22T13:35:19;102709.66;;;12.97
13304;BMP280;6720;51.958;4.540;2023-11-22T13:37:45;102707.13;;;13.06
13304;BMP280;6720;51.958;4.540;2023-11-22T13:40:15;102711.38;;;12.88
13304;BMP280;6720;51.958;4.540;2023-11-22T13:45:09;102714.09;;;13.03
13304;BMP280;6720;51.958;4.540;2023-11-22T13:47:35;102712.34;;;12.99
13304;BMP280;6720;51.958;4.540;2023-11-22T13:50:01;102702.72;;;13.20
13304;BMP280;6720;51.958;4.540;2023-11-22T13:52:29;102695.66;;;12.95
13304;BMP280;6720;51.958;4.540;2023-11-22T13:54:54;102691.22;;;12.82
13304;BMP280;6720;51.958;4.540;2023-11-22T13:57:22;102690.22;;;12.58
13304;BMP280;6720;51.958;4.540;2023-11-22T13:59:48;102687.44;;;12.22
13304;BMP280;6720;51.958;4.540;2023-11-22T14:02:13;102681.53;;;12.66
13304;BMP280;6720;51.958;4.540;2023-11-22T14:04:38;102681.56;;;12.87
13304;BMP280;6720;51.958;4.540;2023-11-22T14:07:05;102666.44;;;12.26
13304;BMP280;6720;51.958;4.540;2023-11-22T14:09:32;102655.09;;;12.36
13304;BMP280;6720;51.958;4.540;2023-11-22T14:12:01;102656.88;;;12.40
13304;BMP280;6720;51.958;4.540;2023-11-22T14:14:27;102657.63;;;12.17
13304;BMP280;6720;51.958;4.540;2023-11-22T14:16:52;102658.44;;;12.05